Time;durP1;ratioP1;P1;durP2;ratioP2;P2;SDS_P1;SDS_P2;PMS_P1;PMS_P2;Temp;Humidity;BMP_temperature;BMP_pressure;BME280_temperature;BME280_humidity;BME280_pressure;Samples;Min_cycle;Max_cycle;Signal;HPM_P1;HPM_P2
2021/05/13 00:00:42;;;;;;;23.95;5.72;;;11.70;99.90;;;;;;5051832;28;20041;-85
2021/05/13 00:03:08;;;;;;;21.73;5.50;;;11.80;99.90;;;;;;5023002;28;20048;-85
2021/05/13 00:05:34;;;;;;;22.40;5.68;;;11.80;99.90;;;;;;5057777;28;20033;-84
2021/05/13 00:08:00;;;;;;;18.58;6.00;;;11.80;99.90;;;;;;5061583;28;20123;-85
2021/05/13 00:10:26;;;;;;;27.90;6.10;;;11.80;99.90;;;;;;5076128;28;20024;-85
2021/05/13 00:12:57;;;;;;;19.55;6.13;;;11.80;99.90;;;;;;5053072;28;20041;-85
2021/05/13 00:15:35;;;;;;;32.72;7.13;;;11.80;99.90;;;;;;5050673;28;20039;-84
2021/05/13 00:18:04;;;;;;;19.73;5.78;;;11.80;99.90;;;;;;5079487;28;20461;-84
2021/05/13 00:20:34;;;;;;;26.70;6.70;;;11.70;99.90;;;;;;5060442;28;20116;-84
2021/05/13 00:23:00;;;;;;;24.63;5.82;;;11.80;99.90;;;;;;5053751;28;20074;-83
2021/05/13 00:25:27;;;;;;;20.75;6.20;;;11.70;99.90;;;;;;5077979;28;20476;-83
2021/05/13 00:27:53;;;;;;;18.88;6.00;;;11.70;99.90;;;;;;5078394;28;20062;-83
2021/05/13 00:30:19;;;;;;;18.38;5.10;;;11.70;99.90;;;;;;5042580;28;20041;-84
2021/05/13 00:32:45;;;;;;;21.48;5.38;;;11.70;99.90;;;;;;5068862;28;20045;-84
2021/05/13 00:35:13;;;;;;;21.48;5.78;;;11.70;99.90;;;;;;5049428;28;20523;-83
2021/05/13 00:37:39;;;;;;;25.35;6.28;;;11.70;99.90;;;;;;5065701;28;20028;-83
2021/05/13 00:40:08;;;;;;;19.55;5.63;;;11.70;99.90;;;;;;5068977;28;20036;-82
2021/05/13 00:42:34;;;;;;;24.83;5.43;;;11.70;99.90;;;;;;5068562;28;20100;-84
2021/05/13 00:45:00;;;;;;;23.58;5.68;;;11.60;99.90;;;;;;5064052;28;20496;-84
2021/05/13 00:47:29;;;;;;;19.23;5.95;;;11.60;99.90;;;;;;5082998;28;20055;-84
2021/05/13 00:49:55;;;;;;;23.35;6.22;;;11.60;99.90;;;;;;5081364;28;20063;-84
2021/05/13 00:52:23;;;;;;;28.52;6.05;;;11.60;99.90;;;;;;5076921;28;20115;-84
2021/05/13 00:54:49;;;;;;;22.27;5.53;;;11.60;99.90;;;;;;5080987;28;20097;-83
2021/05/13 00:57:15;;;;;;;22.25;5.85;;;11.60;99.90;;;;;;5035515;28;20037;-83
2021/05/13 00:59:49;;;;;;;20.52;4.97;;;11.60;99.90;;;;;;5085678;28;20483;-83
2021/05/13 01:02:15;;;;;;;19.40;5.53;;;11.60;99.90;;;;;;5060522;28;20403;-84
2021/05/13 01:04:41;;;;;;;22.33;5.10;;;11.70;99.90;;;;;;5065014;28;20059;-85
2021/05/13 01:07:07;;;;;;;19.92;5.90;;;11.60;99.90;;;;;;5069442;28;20036;-84
2021/05/13 01:09:34;;;;;;;19.73;5.15;;;11.70;99.90;;;;;;5071956;28;20506;-84
2021/05/13 01:12:03;;;;;;;18.35;5.22;;;11.70;99.90;;;;;;5067226;28;20058;-84
2021/05/13 01:19:34;;;;;;;19.42;6.05;;;11.70;99.90;;;;;;5068792;28;20028;-84
2021/05/13 01:22:00;;;;;;;19.00;5.65;;;11.70;99.90;;;;;;5066959;28;20044;-85
2021/05/13 01:24:26;;;;;;;17.77;5.50;;;11.70;99.90;;;;;;5053869;28;20044;-84
2021/05/13 01:26:53;;;;;;;24.10;5.70;;;11.70;99.90;;;;;;5062974;28;20056;-85
2021/05/13 01:29:24;;;;;;;26.08;6.20;;;11.70;99.90;;;;;;5066467;28;20028;-85
2021/05/13 01:31:51;;;;;;;22.07;6.47;;;11.70;99.90;;;;;;5066418;28;20093;-85
2021/05/13 01:34:17;;;;;;;20.85;5.00;;;11.70;99.90;;;;;;5068173;28;20275;-85
2021/05/13 01:36:44;;;;;;;21.05;5.45;;;11.70;99.90;;;;;;5067303;28;20082;-84
2021/05/13 01:39:11;;;;;;;23.80;7.25;;;11.70;99.90;;;;;;5070515;28;20132;-84
2021/05/13 01:41:39;;;;;;;21.65;4.65;;;11.70;99.90;;;;;;5064323;28;20046;-84
2021/05/13 01:44:05;;;;;;;23.50;5.40;;;11.70;99.90;;;;;;5079007;28;20048;-85
2021/05/13 01:46:32;;;;;;;17.02;5.00;;;11.70;99.90;;;;;;5053090;28;20040;-84
2021/05/13 01:48:58;;;;;;;20.25;4.97;;;11.70;99.90;;;;;;5068936;28;20042;-84
2021/05/13 01:51:24;;;;;;;18.65;5.35;;;11.70;99.90;;;;;;5044762;28;20048;-84
2021/05/13 01:53:49;;;;;;;21.88;5.28;;;11.70;99.90;;;;;;5058867;28;20050;-85
2021/05/13 01:56:16;;;;;;;20.63;5.97;;;11.70;99.90;;;;;;5076213;28;20044;-85
2021/05/13 01:58:44;;;;;;;20.77;5.50;;;11.70;99.90;;;;;;5083801;28;20562;-85
2021/05/13 02:01:12;;;;;;;27.73;7.07;;;11.70;99.90;;;;;;5071707;28;20038;-84
2021/05/13 02:03:43;;;;;;;17.52;5.63;;;11.70;99.90;;;;;;5032244;28;20044;-85
2021/05/13 02:06:10;;;;;;;25.42;5.63;;;11.70;99.90;;;;;;5067390;28;20036;-85
2021/05/13 02:08:36;;;;;;;20.70;5.57;;;11.70;99.90;;;;;;5051565;28;20036;-85
2021/05/13 02:11:03;;;;;;;24.15;7.57;;;11.70;99.90;;;;;;5051581;28;20035;-85
2021/05/13 02:13:29;;;;;;;23.42;5.38;;;11.70;99.90;;;;;;5062935;28;20040;-84
2021/05/13 02:15:55;;;;;;;22.83;5.85;;;11.70;99.90;;;;;;5063394;28;20090;-84
2021/05/13 02:18:21;;;;;;;19.73;5.97;;;11.70;99.90;;;;;;5071286;28;20518;-84
2021/05/13 02:20:48;;;;;;;18.52;6.00;;;11.70;99.90;;;;;;5044470;28;20032;-85
2021/05/13 02:23:14;;;;;;;17.27;5.22;;;11.70;99.90;;;;;;5071661;28;20051;-84
2021/05/13 02:25:42;;;;;;;20.33;5.70;;;11.70;99.90;;;;;;5084619;28;20119;-84
2021/05/13 02:28:08;;;;;;;19.13;5.53;;;11.70;99.90;;;;;;5053826;28;20044;-84
2021/05/13 02:30:34;;;;;;;23.23;5.60;;;11.70;99.90;;;;;;5102611;28;20137;-84
2021/05/13 02:33:00;;;;;;;16.98;5.18;;;11.70;99.90;;;;;;5071946;28;20071;-84
2021/05/13 02:35:26;;;;;;;17.95;5.63;;;11.70;99.90;;;;;;5055276;28;20036;-84
2021/05/13 02:37:52;;;;;;;22.67;6.43;;;11.70;99.90;;;;;;5059011;28;20034;-84
2021/05/13 02:40:18;;;;;;;14.95;5.47;;;11.60;99.90;;;;;;5062275;28;20031;-84
2021/05/13 02:42:45;;;;;;;19.85;6.53;;;11.60;99.90;;;;;;5020379;28;20059;-84
2021/05/13 02:45:12;;;;;;;27.05;7.30;;;11.60;99.90;;;;;;5091929;28;20028;-84
2021/05/13 02:47:38;;;;;;;19.15;6.43;;;11.60;99.90;;;;;;5042031;28;20380;-84
2021/05/13 02:50:05;;;;;;;22.73;5.43;;;11.60;99.90;;;;;;5081126;28;20046;-84
2021/05/13 02:52:31;;;;;;;20.25;6.40;;;11.60;99.90;;;;;;5076538;28;20090;-84
2021/05/13 02:54:57;;;;;;;15.80;5.75;;;11.60;99.90;;;;;;5041136;28;20041;-84
2021/05/13 02:57:23;;;;;;;21.85;6.03;;;11.60;99.90;;;;;;5058715;28;20040;-83
2021/05/13 02:59:51;;;;;;;24.23;6.55;;;11.60;99.90;;;;;;5100713;28;20036;-84
2021/05/13 03:02:17;;;;;;;20.55;6.28;;;11.60;99.90;;;;;;5047275;28;20039;-84
2021/05/13 03:04:44;;;;;;;22.40;6.63;;;11.60;99.90;;;;;;5073198;28;20035;-83
2021/05/13 03:07:10;;;;;;;21.65;6.82;;;11.60;99.90;;;;;;5070501;28;20032;-84
2021/05/13 03:09:39;;;;;;;20.40;6.45;;;11.50;99.90;;;;;;5058257;28;20486;-83
2021/05/13 03:12:06;;;;;;;23.58;7.30;;;11.60;99.90;;;;;;5072398;28;20024;-83
2021/05/13 03:14:33;;;;;;;21.90;6.45;;;11.60;99.90;;;;;;5091789;28;20068;-84
2021/05/13 03:16:58;;;;;;;25.98;8.30;;;11.60;99.90;;;;;;5063101;28;20048;-84
2021/05/13 03:19:38;;;;;;;19.25;6.45;;;11.60;99.90;;;;;;5057590;28;20115;-83
2021/05/13 03:22:07;;;;;;;26.08;6.85;;;11.60;99.90;;;;;;5075405;28;20713;-83
2021/05/13 03:24:43;;;;;;;17.95;6.72;;;11.60;99.90;;;;;;5056831;28;20527;-84
2021/05/13 03:27:24;;;;;;;23.92;7.18;;;11.60;99.90;;;;;;5029408;28;20048;-84
2021/05/13 03:29:51;;;;;;;18.37;6.80;;;11.60;99.90;;;;;;5075259;28;20043;-84
2021/05/13 03:32:17;;;;;;;20.20;6.40;;;11.60;99.90;;;;;;5057378;28;20036;-85
2021/05/13 03:34:43;;;;;;;23.05;6.38;;;11.60;99.90;;;;;;5070967;28;20035;-85
2021/05/13 03:37:09;;;;;;;20.73;6.72;;;11.60;99.90;;;;;;5057423;28;20039;-85
2021/05/13 03:39:35;;;;;;;21.15;6.63;;;11.60;99.90;;;;;;5074186;28;20040;-85
2021/05/13 03:42:04;;;;;;;21.85;6.70;;;11.60;99.90;;;;;;5054379;28;20039;-85
2021/05/13 03:44:30;;;;;;;20.63;6.10;;;11.60;99.90;;;;;;5105121;28;20061;-85
2021/05/13 03:46:56;;;;;;;24.92;7.25;;;11.60;99.90;;;;;;5041473;28;20040;-85
2021/05/13 03:49:22;;;;;;;19.20;6.28;;;11.60;99.90;;;;;;5042121;28;20039;-85
2021/05/13 03:51:48;;;;;;;18.38;6.70;;;11.60;99.90;;;;;;5064336;28;20036;-85
2021/05/13 03:54:14;;;;;;;26.13;7.07;;;11.60;99.90;;;;;;5059658;28;20085;-85
2021/05/13 03:56:40;;;;;;;22.45;6.97;;;11.60;99.90;;;;;;5037113;28;20048;-85
2021/05/13 03:59:15;;;;;;;26.35;7.22;;;11.60;99.90;;;;;;5088281;28;20479;-84
2021/05/13 04:04:16;;;;;;;22.63;7.47;;;11.60;99.90;;;;;;5085586;28;20043;-85
2021/05/13 04:06:43;;;;;;;29.88;7.72;;;11.60;99.90;;;;;;5061480;28;20082;-84
2021/05/13 04:09:09;;;;;;;18.48;8.13;;;11.60;99.90;;;;;;5064567;28;20063;-83
2021/05/13 04:11:40;;;;;;;22.20;6.82;;;11.50;99.90;;;;;;5060393;28;20074;-84
2021/05/13 04:14:08;;;;;;;20.33;6.68;;;11.50;99.90;;;;;;5082518;28;20031;-85
2021/05/13 04:16:37;;;;;;;15.15;6.50;;;11.50;99.90;;;;;;5064186;28;20501;-85
2021/05/13 04:19:06;;;;;;;26.23;7.65;;;11.50;99.90;;;;;;5046753;28;20039;-85
2021/05/13 04:21:32;;;;;;;21.05;7.10;;;11.50;99.90;;;;;;5084082;28;20032;-84
2021/05/13 04:23:58;;;;;;;25.13;6.97;;;11.40;99.90;;;;;;5097690;28;20044;-86
2021/05/13 04:26:27;;;;;;;17.40;5.88;;;11.40;99.90;;;;;;5045707;28;20040;-84
2021/05/13 04:28:53;;;;;;;19.35;6.93;;;11.40;99.90;;;;;;5084489;28;20032;-86
2021/05/13 04:31:19;;;;;;;18.88;6.90;;;11.50;99.90;;;;;;5075445;28;20034;-87
2021/05/13 04:33:45;;;;;;;19.88;6.82;;;11.50;99.90;;;;;;5046026;28;20036;-85
2021/05/13 04:36:11;;;;;;;18.98;7.18;;;11.50;99.90;;;;;;5054304;28;20430;-85
2021/05/13 04:38:41;;;;;;;21.02;6.93;;;11.40;99.90;;;;;;5064317;28;20036;-85
2021/05/13 04:41:07;;;;;;;21.25;6.82;;;11.50;99.90;;;;;;5071695;28;20081;-85
2021/05/13 04:43:37;;;;;;;15.05;6.43;;;11.50;99.90;;;;;;5054037;28;20036;-85
2021/05/13 04:46:04;;;;;;;18.00;6.88;;;11.60;99.90;;;;;;5061205;28;20040;-85
2021/05/13 04:48:51;;;;;;;19.30;7.45;;;11.60;99.90;;;;;;5072394;28;20035;-84
2021/05/13 04:51:24;;;;;;;15.73;6.40;;;11.60;99.90;;;;;;5060709;28;20540;-85
2021/05/13 04:53:50;;;;;;;16.13;7.32;;;11.70;99.90;;;;;;5088466;28;20066;-85
2021/05/13 04:56:17;;;;;;;19.80;7.47;;;11.70;99.90;;;;;;5089611;28;20046;-85
2021/05/13 04:58:43;;;;;;;16.98;6.93;;;11.70;99.90;;;;;;5070676;28;20053;-85
2021/05/13 05:01:10;;;;;;;17.40;6.63;;;11.70;99.90;;;;;;5058907;28;20495;-84
2021/05/13 05:03:37;;;;;;;14.52;6.97;;;11.70;99.90;;;;;;5039134;28;20038;-85
2021/05/13 05:06:04;;;;;;;21.77;7.40;;;11.70;99.90;;;;;;5054244;28;20123;-86
2021/05/13 05:08:31;;;;;;;15.63;6.70;;;11.70;99.90;;;;;;5055521;28;20056;-85
2021/05/13 05:10:57;;;;;;;16.52;7.07;;;11.70;99.90;;;;;;5035805;28;20033;-85
2021/05/13 05:13:23;;;;;;;19.85;7.55;;;11.70;99.90;;;;;;5062429;28;20036;-85
2021/05/13 05:15:49;;;;;;;18.42;6.68;;;11.70;99.90;;;;;;5047769;28;20064;-85
2021/05/13 05:18:19;;;;;;;19.67;7.05;;;11.70;99.90;;;;;;5079604;28;20105;-84
2021/05/13 05:20:45;;;;;;;24.95;7.68;;;11.70;99.90;;;;;;5055309;28;20040;-85
2021/05/13 05:23:11;;;;;;;25.17;7.88;;;11.60;99.90;;;;;;5056289;28;20036;-85
2021/05/13 05:25:39;;;;;;;21.83;7.05;;;11.60;99.90;;;;;;5104508;28;20030;-85
2021/05/13 05:28:05;;;;;;;16.55;7.20;;;11.60;99.90;;;;;;5064361;28;20490;-85
2021/05/13 05:30:33;;;;;;;18.10;7.22;;;11.60;99.90;;;;;;5078782;28;20036;-85
2021/05/13 05:33:04;;;;;;;19.30;7.32;;;11.50;99.90;;;;;;5073824;28;20032;-85
2021/05/13 05:35:31;;;;;;;16.10;7.15;;;11.50;99.90;;;;;;5087562;28;20040;-84
2021/05/13 05:37:59;;;;;;;20.67;7.60;;;11.50;99.90;;;;;;5046955;28;20027;-85
2021/05/13 05:40:25;;;;;;;23.83;7.75;;;11.50;99.90;;;;;;5079037;28;20403;-85
2021/05/13 05:42:52;;;;;;;17.67;7.50;;;11.50;99.90;;;;;;5073738;28;20046;-84
2021/05/13 05:45:23;;;;;;;20.40;7.78;;;11.50;99.90;;;;;;5058078;28;20051;-85
2021/05/13 05:47:52;;;;;;;22.60;7.85;;;11.50;99.90;;;;;;5070865;28;20497;-85
2021/05/13 05:50:19;;;;;;;19.95;7.20;;;11.50;99.90;;;;;;5080235;28;20437;-85
2021/05/13 05:52:46;;;;;;;22.02;8.00;;;11.50;99.90;;;;;;5036780;28;20051;-84
2021/05/13 05:55:13;;;;;;;22.13;7.78;;;11.60;99.90;;;;;;5091781;28;20075;-85
2021/05/13 05:57:39;;;;;;;17.17;7.13;;;11.70;99.90;;;;;;5057108;28;20063;-85
2021/05/13 06:00:07;;;;;;;18.05;7.20;;;11.70;99.90;;;;;;5035046;28;20040;-85
2021/05/13 06:02:38;;;;;;;17.85;7.30;;;11.80;99.90;;;;;;5064074;28;20511;-85
2021/05/13 06:05:10;;;;;;;15.73;6.75;;;11.90;99.90;;;;;;5070258;28;20051;-85
2021/05/13 06:07:37;;;;;;;13.93;6.80;;;11.90;99.90;;;;;;5089167;28;20394;-85
2021/05/13 06:10:06;;;;;;;17.88;7.10;;;12.00;99.90;;;;;;5056321;28;20036;-85
2021/05/13 06:12:35;;;;;;;13.20;6.80;;;12.00;99.90;;;;;;5069420;28;20036;-85
2021/05/13 06:15:02;;;;;;;18.75;7.03;;;12.10;99.90;;;;;;5080565;28;20039;-85
2021/05/13 06:17:29;;;;;;;16.63;7.03;;;12.10;99.90;;;;;;5044666;28;20419;-85
2021/05/13 06:20:00;;;;;;;23.40;6.95;;;12.20;99.90;;;;;;5050514;28;20048;-85
2021/05/13 06:22:32;;;;;;;20.13;6.82;;;12.30;99.90;;;;;;5043853;28;20451;-86
2021/05/13 06:24:59;;;;;;;15.50;6.30;;;12.30;99.90;;;;;;5100385;28;20032;-85
2021/05/13 06:27:24;;;;;;;20.15;6.80;;;12.30;99.90;;;;;;5079453;28;20023;-85
2021/05/13 06:29:56;;;;;;;18.27;6.65;;;12.30;99.90;;;;;;5046157;28;20411;-85
2021/05/13 06:32:23;;;;;;;18.02;6.68;;;12.40;99.90;;;;;;5050395;28;20157;-85
2021/05/13 06:34:49;;;;;;;18.38;5.80;;;12.40;99.90;;;;;;5079811;28;20045;-85
2021/05/13 06:37:14;;;;;;;14.50;6.43;;;12.50;99.90;;;;;;5049450;28;20046;-84
2021/05/13 06:39:40;;;;;;;17.23;5.72;;;12.60;99.90;;;;;;5058234;28;20032;-85
2021/05/13 06:42:08;;;;;;;19.77;6.55;;;12.60;99.90;;;;;;5060652;28;20032;-85
2021/05/13 06:44:36;;;;;;;15.88;6.70;;;12.60;99.90;;;;;;5049134;28;20043;-84
2021/05/13 06:47:02;;;;;;;15.40;6.40;;;12.70;99.90;;;;;;5055750;28;20041;-85
2021/05/13 06:49:29;;;;;;;16.38;6.82;;;12.70;99.90;;;;;;5057125;28;20475;-84
2021/05/13 06:52:15;;;;;;;16.08;6.40;;;12.80;99.90;;;;;;5058991;28;20033;-85
2021/05/13 06:54:45;;;;;;;18.85;5.95;;;12.90;99.90;;;;;;5060354;28;20043;-84
2021/05/13 06:57:11;;;;;;;18.33;6.07;;;12.90;99.90;;;;;;5074126;28;20151;-84
2021/05/13 06:59:41;;;;;;;12.20;5.20;;;13.00;99.90;;;;;;5054354;28;20043;-85
2021/05/13 07:02:07;;;;;;;16.15;6.03;;;13.00;99.90;;;;;;5041257;28;20653;-85
2021/05/13 07:04:40;;;;;;;18.98;6.43;;;13.10;99.90;;;;;;5031833;28;20131;-85
2021/05/13 07:07:06;;;;;;;14.20;5.70;;;13.10;99.90;;;;;;5064964;28;20067;-85
2021/05/13 07:09:32;;;;;;;13.50;5.55;;;13.20;99.90;;;;;;5043574;28;20102;-86
2021/05/13 07:11:58;;;;;;;17.55;5.75;;;13.20;99.90;;;;;;5052970;28;20122;-85
2021/05/13 07:14:23;;;;;;;14.15;5.40;;;13.20;99.90;;;;;;5055310;28;20040;-84
2021/05/13 07:16:49;;;;;;;16.38;6.30;;;13.30;99.90;;;;;;5054033;28;20586;-85
2021/05/13 07:19:16;;;;;;;19.02;6.00;;;13.20;99.90;;;;;;5042144;28;20216;-84
2021/05/13 07:21:41;;;;;;;15.75;5.63;;;13.20;99.90;;;;;;5079840;28;20032;-84
2021/05/13 07:24:08;;;;;;;17.60;5.38;;;13.10;99.90;;;;;;5045023;28;20051;-85
2021/05/13 07:26:34;;;;;;;14.45;5.32;;;13.10;99.90;;;;;;5069810;28;20047;-85
2021/05/13 07:29:00;;;;;;;12.80;5.43;;;13.00;99.90;;;;;;5055567;28;20028;-85
2021/05/13 07:31:26;;;;;;;20.52;6.45;;;12.90;99.90;;;;;;5058832;28;20122;-85
2021/05/13 07:33:52;;;;;;;16.90;5.47;;;13.00;99.90;;;;;;5059195;28;20033;-86
2021/05/13 07:36:18;;;;;;;12.20;5.40;;;12.90;99.90;;;;;;5059398;28;20059;-86
2021/05/13 07:38:45;;;;;;;12.90;5.35;;;12.90;99.90;;;;;;5065330;28;20024;-86
2021/05/13 07:41:11;;;;;;;10.65;4.88;;;12.90;99.90;;;;;;5055478;28;20032;-86
2021/05/13 07:43:37;;;;;;;10.75;4.93;;;12.90;99.90;;;;;;5063706;28;20118;-85
2021/05/13 07:46:04;;;;;;;16.50;5.65;;;12.90;99.90;;;;;;5055324;28;20395;-85
2021/05/13 07:48:31;;;;;;;14.05;5.22;;;12.90;99.90;;;;;;5072719;28;20036;-85
2021/05/13 07:50:57;;;;;;;15.48;4.60;;;13.00;99.90;;;;;;5045002;28;20097;-85
2021/05/13 07:53:25;;;;;;;13.23;4.13;;;12.90;99.90;;;;;;5103376;28;20036;-86
2021/05/13 07:55:51;;;;;;;12.35;3.53;;;13.00;99.90;;;;;;5072508;28;20032;-86
2021/05/13 07:58:17;;;;;;;11.93;4.20;;;13.00;99.90;;;;;;5057992;28;20063;-85
2021/05/13 08:00:42;;;;;;;15.52;3.67;;;13.00;99.90;;;;;;5069200;28;20040;-85
2021/05/13 08:03:12;;;;;;;9.02;3.05;;;13.10;99.90;;;;;;5064161;28;20036;-84
2021/05/13 08:05:40;;;;;;;9.93;3.20;;;13.10;99.90;;;;;;5089785;28;20048;-85
2021/05/13 08:08:05;;;;;;;9.50;2.30;;;13.10;99.90;;;;;;5073120;28;20043;-84
2021/05/13 08:10:32;;;;;;;8.80;3.00;;;13.10;99.90;;;;;;5057027;28;20480;-84
2021/05/13 08:12:57;;;;;;;9.95;2.55;;;13.10;99.90;;;;;;5070558;28;20032;-84
2021/05/13 08:15:24;;;;;;;14.02;2.10;;;13.20;99.90;;;;;;5071401;28;20040;-84
2021/05/13 08:17:49;;;;;;;7.00;2.00;;;13.20;99.90;;;;;;5071348;28;20044;-84
2021/05/13 08:20:16;;;;;;;11.68;2.17;;;13.20;99.90;;;;;;5041188;28;20041;-84
2021/05/13 08:22:44;;;;;;;9.68;2.22;;;13.20;99.90;;;;;;5020406;28;20052;-84
2021/05/13 08:25:11;;;;;;;8.30;2.20;;;13.30;99.90;;;;;;5089742;28;20043;-84
2021/05/13 08:27:38;;;;;;;8.95;3.00;;;13.30;99.90;;;;;;5052951;28;20032;-84
2021/05/13 08:30:07;;;;;;;6.22;2.03;;;13.40;99.90;;;;;;5039073;28;20093;-84
2021/05/13 08:32:33;;;;;;;11.15;2.35;;;13.40;99.90;;;;;;5067391;28;20036;-84
2021/05/13 08:34:59;;;;;;;6.68;1.98;;;13.50;99.90;;;;;;5069895;28;20032;-85
2021/05/13 08:37:25;;;;;;;9.15;2.20;;;13.50;99.90;;;;;;5052485;28;20040;-84
2021/05/13 08:39:51;;;;;;;11.60;2.45;;;13.50;99.90;;;;;;5098966;28;20035;-83
2021/05/13 08:42:17;;;;;;;9.38;2.42;;;13.60;99.90;;;;;;5052126;28;20540;-83
2021/05/13 08:44:45;;;;;;;10.13;2.78;;;13.60;99.90;;;;;;5053955;28;20048;-84
2021/05/13 08:47:11;;;;;;;11.95;3.53;;;13.60;99.90;;;;;;5054592;28;20090;-83
2021/05/13 08:49:40;;;;;;;8.32;2.40;;;13.70;99.90;;;;;;5047559;28;20047;-84
2021/05/13 08:52:19;;;;;;;11.98;3.00;;;13.70;99.90;;;;;;5071880;28;20054;-83
2021/05/13 08:54:58;;;;;;;12.70;3.35;;;13.80;99.90;;;;;;5068284;28;20501;-84
2021/05/13 08:57:25;;;;;;;8.95;2.50;;;13.80;99.90;;;;;;5072987;28;20119;-83
2021/05/13 08:59:51;;;;;;;11.38;2.75;;;13.80;99.90;;;;;;5056736;28;20123;-84
2021/05/13 09:02:18;;;;;;;15.20;3.15;;;13.90;99.90;;;;;;5056478;28;20471;-83
2021/05/13 09:04:54;;;;;;;10.90;2.70;;;13.90;99.90;;;;;;5054180;28;20035;-84
2021/05/13 09:07:29;;;;;;;7.82;2.30;;;13.90;99.90;;;;;;5090416;28;20044;-83
2021/05/13 09:10:11;;;;;;;9.48;2.17;;;14.00;99.90;;;;;;5070404;28;20113;-83
2021/05/13 09:12:48;;;;;;;7.40;2.42;;;14.00;99.90;;;;;;5068997;28;20379;-84
2021/05/13 09:15:18;;;;;;;8.90;2.47;;;14.00;99.90;;;;;;5099134;28;20050;-84
2021/05/13 09:17:47;;;;;;;11.38;2.35;;;14.00;99.90;;;;;;5069682;28;20292;-84
2021/05/13 09:20:31;;;;;;;10.48;2.25;;;14.10;99.90;;;;;;5087037;28;20497;-84
2021/05/13 09:23:13;;;;;;;8.13;1.63;;;14.10;99.90;;;;;;5079255;28;20039;-84
2021/05/13 09:25:59;;;;;;;7.68;1.60;;;14.10;99.90;;;;;;5077445;28;20066;-84
2021/05/13 09:28:25;;;;;;;11.38;2.20;;;14.20;99.90;;;;;;5070036;28;20036;-84
2021/05/13 09:30:51;;;;;;;10.88;2.10;;;14.30;99.90;;;;;;5054021;28;20731;-84
2021/05/13 09:33:27;;;;;;;10.77;2.10;;;14.30;99.90;;;;;;5054250;28;20036;-85
2021/05/13 09:35:53;;;;;;;9.10;1.75;;;14.30;99.90;;;;;;5070587;28;20036;-85
2021/05/13 09:38:31;;;;;;;7.88;1.77;;;14.40;99.90;;;;;;5073488;28;20385;-85
2021/05/13 09:40:57;;;;;;;7.57;1.75;;;14.30;99.90;;;;;;5101268;28;20032;-84
2021/05/13 09:43:28;;;;;;;9.38;2.40;;;14.30;99.90;;;;;;5069903;28;20093;-85
2021/05/13 09:45:56;;;;;;;9.85;2.35;;;14.40;99.90;;;;;;5069524;28;20059;-85
2021/05/13 09:48:39;;;;;;;9.48;2.08;;;14.40;99.90;;;;;;5054468;28;20032;-85
2021/05/13 09:51:24;;;;;;;11.43;2.42;;;14.50;99.90;;;;;;5054949;28;20044;-85
2021/05/13 09:54:14;;;;;;;11.73;3.00;;;14.50;99.90;;;;;;5094597;28;21064;-85
2021/05/13 09:56:51;;;;;;;10.30;2.03;;;14.60;99.90;;;;;;5076621;28;20561;-84
2021/05/13 09:59:29;;;;;;;11.32;2.88;;;14.60;99.90;;;;;;5088341;28;20445;-85
2021/05/13 10:01:58;;;;;;;14.45;2.53;;;14.70;99.90;;;;;;5069108;28;20043;-85
2021/05/13 10:04:25;;;;;;;8.95;2.00;;;14.70;99.90;;;;;;5076280;28;20035;-84
2021/05/13 10:06:52;;;;;;;10.13;2.00;;;14.70;99.90;;;;;;5105655;28;20063;-85
2021/05/13 10:09:20;;;;;;;9.00;2.03;;;14.70;99.90;;;;;;5078815;28;20052;-85
2021/05/13 10:11:54;;;;;;;10.30;2.50;;;14.80;99.90;;;;;;5058546;28;20052;-85
2021/05/13 10:14:22;;;;;;;8.23;2.13;;;14.80;99.90;;;;;;5072383;28;20031;-84
2021/05/13 10:16:50;;;;;;;9.45;1.80;;;14.90;99.90;;;;;;5073794;28;20060;-85
2021/05/13 10:19:27;;;;;;;9.55;1.98;;;14.90;99.90;;;;;;5050898;28;20036;-85
2021/05/13 10:21:54;;;;;;;7.63;1.88;;;14.90;99.90;;;;;;5069533;28;20047;-85
2021/05/13 10:24:20;;;;;;;7.30;1.80;;;14.90;99.90;;;;;;5073086;28;20126;-83
2021/05/13 10:26:48;;;;;;;7.90;1.65;;;15.00;99.90;;;;;;5049945;28;20462;-84
2021/05/13 10:29:23;;;;;;;8.23;1.30;;;15.00;99.90;;;;;;5044353;28;20040;-84
2021/05/13 10:32:01;;;;;;;4.68;1.08;;;15.10;99.90;;;;;;5069206;28;20522;-84
2021/05/13 10:34:45;;;;;;;6.07;0.93;;;15.10;99.90;;;;;;5054351;28;20059;-85
2021/05/13 10:37:38;;;;;;;7.90;1.10;;;15.10;99.90;;;;;;5056940;28;20034;-84
2021/05/13 10:42:47;;;;;;;6.78;1.25;;;15.10;99.90;;;;;;5083537;28;20032;-84
2021/05/13 10:45:25;;;;;;;4.13;1.00;;;15.20;99.90;;;;;;5074523;28;20380;-84
2021/05/13 10:48:23;;;;;;;4.80;0.80;;;15.20;99.90;;;;;;5087726;28;20068;-84
2021/05/13 10:51:02;;;;;;;3.58;0.80;;;15.30;99.90;;;;;;5102029;28;20062;-85
2021/05/13 10:53:45;;;;;;;3.90;0.77;;;15.30;99.90;;;;;;5069156;28;20044;-85
2021/05/13 10:56:32;;;;;;;7.32;1.48;;;15.40;99.90;;;;;;5088777;28;20036;-85
2021/05/13 10:59:09;;;;;;;6.68;1.38;;;15.40;99.90;;;;;;5066979;28;20044;-84
2021/05/13 11:01:48;;;;;;;2.65;0.65;;;15.40;99.90;;;;;;5074212;28;20024;-85
2021/05/13 11:04:20;;;;;;;3.40;0.80;;;15.50;99.90;;;;;;5072332;28;20140;-84
2021/05/13 11:06:47;;;;;;;3.72;1.23;;;15.60;99.90;;;;;;5087573;28;20043;-84
2021/05/13 11:09:42;;;;;;;6.25;1.30;;;15.60;99.90;;;;;;5065178;28;20040;-85
2021/05/13 11:12:27;;;;;;;3.03;1.15;;;15.60;99.90;;;;;;5075244;28;20044;-85
2021/05/13 11:17:53;;;;;;;2.80;0.57;;;15.70;99.90;;;;;;5101522;28;20143;-84
2021/05/13 11:20:40;;;;;;;4.43;1.08;;;15.70;99.90;;;;;;5092628;28;20042;-85
2021/05/13 11:23:07;;;;;;;6.03;0.98;;;15.80;99.90;;;;;;5071672;28;20601;-85
2021/05/13 11:25:56;;;;;;;4.70;1.45;;;15.80;99.90;;;;;;5083359;28;20039;-85
2021/05/13 11:28:35;;;;;;;6.72;1.52;;;15.80;99.90;;;;;;5090012;28;20364;-85
2021/05/13 11:31:04;;;;;;;3.65;0.90;;;15.90;99.90;;;;;;5059238;28;20111;-84
2021/05/13 11:33:50;;;;;;;6.63;1.30;;;16.00;99.90;;;;;;5085538;28;20569;-84
2021/05/13 11:36:30;;;;;;;4.05;1.23;;;16.10;99.90;;;;;;5076668;28;20119;-84
2021/05/13 11:38:57;;;;;;;3.78;1.42;;;16.10;99.90;;;;;;5064934;28;20040;-84
2021/05/13 11:41:23;;;;;;;4.30;1.58;;;16.20;99.90;;;;;;5078652;28;20118;-85
2021/05/13 11:43:50;;;;;;;3.78;1.13;;;16.20;99.90;;;;;;5107049;28;20043;-85
2021/05/13 11:46:19;;;;;;;3.88;1.10;;;16.30;99.90;;;;;;5060092;28;20470;-85
2021/05/13 11:48:47;;;;;;;6.53;1.27;;;16.30;99.90;;;;;;5086237;28;20051;-85
2021/05/13 11:51:23;;;;;;;7.93;2.08;;;16.30;99.90;;;;;;5084324;28;20036;-84
2021/05/13 11:53:51;;;;;;;3.25;1.40;;;16.30;99.90;;;;;;5076243;28;20513;-84
2021/05/13 11:56:18;;;;;;;3.78;1.20;;;16.30;99.90;;;;;;5058798;28;20499;-84
2021/05/13 11:58:50;;;;;;;5.10;1.95;;;16.30;99.90;;;;;;5069725;28;20044;-84
2021/05/13 12:01:29;;;;;;;4.85;1.20;;;16.30;99.90;;;;;;5076968;28;20080;-84
2021/05/13 12:04:08;;;;;;;7.05;1.42;;;16.30;99.90;;;;;;5089076;28;20323;-84
2021/05/13 12:06:45;;;;;;;3.30;1.25;;;16.40;99.90;;;;;;5067558;28;20483;-84
2021/05/13 12:09:12;;;;;;;3.67;1.38;;;16.40;99.90;;;;;;5079241;28;20107;-84
2021/05/13 12:11:37;;;;;;;3.22;1.10;;;16.50;99.90;;;;;;5077435;28;20040;-84
2021/05/13 12:14:10;;;;;;;5.43;1.45;;;16.50;99.90;;;;;;5072670;28;20040;-83
2021/05/13 12:16:36;;;;;;;3.25;0.80;;;16.50;99.90;;;;;;5105482;28;20028;-84
2021/05/13 12:19:08;;;;;;;4.25;1.65;;;16.50;99.90;;;;;;5066957;28;20060;-84
2021/05/13 12:21:37;;;;;;;5.80;1.35;;;16.50;99.90;;;;;;5094978;28;20042;-84
2021/05/13 12:24:04;;;;;;;6.00;1.65;;;16.50;99.90;;;;;;5100999;28;20046;-83
2021/05/13 12:26:40;;;;;;;5.45;1.58;;;16.50;99.90;;;;;;5102191;28;20142;-84
2021/05/13 12:29:12;;;;;;;3.67;1.42;;;16.50;99.90;;;;;;5063603;28;20506;-85
2021/05/13 12:31:39;;;;;;;2.35;1.02;;;16.50;99.90;;;;;;5076244;28;20036;-84
2021/05/13 12:34:06;;;;;;;3.38;1.00;;;16.50;99.90;;;;;;5066031;28;20036;-84
2021/05/13 12:36:39;;;;;;;4.82;1.48;;;16.50;99.90;;;;;;5064682;28;20050;-84
2021/05/13 12:39:07;;;;;;;4.80;1.15;;;16.50;99.90;;;;;;5078898;28;20081;-84
2021/05/13 12:41:33;;;;;;;6.35;1.27;;;16.50;99.90;;;;;;5049578;28;20082;-84
2021/05/13 12:44:11;;;;;;;3.78;0.93;;;16.60;99.90;;;;;;5055042;28;20047;-84
2021/05/13 12:46:44;;;;;;;2.78;1.17;;;16.60;99.90;;;;;;5078762;28;20035;-85
2021/05/13 12:49:23;;;;;;;4.72;1.00;;;16.60;99.90;;;;;;5082483;28;20043;-84
2021/05/13 12:52:05;;;;;;;4.32;1.40;;;16.70;99.90;;;;;;5085849;28;20047;-84
2021/05/13 12:54:35;;;;;;;3.35;1.60;;;16.70;99.90;;;;;;5076012;28;20088;-84
2021/05/13 12:57:11;;;;;;;7.03;3.53;;;16.80;99.90;;;;;;5056843;28;20036;-84
2021/05/13 12:59:37;;;;;;;6.97;2.33;;;16.80;99.90;;;;;;5078291;28;20054;-84
2021/05/13 13:02:04;;;;;;;6.25;2.30;;;16.80;99.90;;;;;;5056692;28;20484;-85
2021/05/13 13:04:49;;;;;;;4.45;2.20;;;16.80;99.90;;;;;;5092082;28;20059;-84